Time;durP1;ratioP1;P1;durP2;ratioP2;P2;SDS_P1;SDS_P2;PMS_P1;PMS_P2;Temp;Humidity;BMP_temperature;BMP_pressure;BME280_temperature;BME280_humidity;BME280_pressure;Samples;Min_cycle;Max_cycle;Signal;HPM_P1;HPM_P2
2023/03/24 00:00:10;;;;;;;10.95;3.67;;;;;;;9.93;79.83;100093.97;7388675;19;20037;-66
2023/03/24 00:02:40;;;;;;;10.43;3.28;;;;;;;9.91;80.23;100098.59;7388885;19;20006;-65
2023/03/24 00:05:17;;;;;;;8.82;3.17;;;;;;;9.93;79.74;100091.31;7388462;19;20006;-64
2023/03/24 00:07:43;;;;;;;8.57;2.92;;;;;;;9.90;80.18;100080.13;7389283;19;20002;-65
2023/03/24 00:10:16;;;;;;;7.90;3.10;;;;;;;9.93;80.09;100074.56;7388568;19;20058;-65
2023/03/24 00:12:43;;;;;;;9.80;3.08;;;;;;;9.87;80.07;100070.66;7388562;19;20026;-65
2023/03/24 00:15:13;;;;;;;9.85;3.50;;;;;;;9.96;80.00;100076.94;7385782;19;20010;-65
2023/03/24 00:17:39;;;;;;;9.65;3.40;;;;;;;9.90;80.26;100064.22;7388876;19;20009;-65
2023/03/24 00:20:13;;;;;;;10.38;3.20;;;;;;;9.85;80.36;100061.97;7391067;19;20102;-63
2023/03/24 00:22:41;;;;;;;7.50;2.80;;;;;;;9.88;80.52;100050.25;7395893;19;20007;-65
2023/03/24 00:25:08;;;;;;;9.27;2.67;;;;;;;9.89;80.38;100050.09;7394695;19;20006;-65
2023/03/24 00:27:35;;;;;;;8.60;3.15;;;;;;;9.84;80.79;100041.75;7395529;19;20078;-65
2023/03/24 00:30:06;;;;;;;9.77;3.30;;;;;;;9.78;80.81;100030.81;7395400;19;20002;-65
2023/03/24 00:32:32;;;;;;;11.40;3.17;;;;;;;9.78;80.94;100028.97;7396346;19;20010;-64
2023/03/24 00:34:57;;;;;;;10.30;3.53;;;;;;;9.71;81.13;100022.56;7395353;19;20015;-65
2023/03/24 00:37:23;;;;;;;7.45;3.10;;;;;;;9.68;81.33;100031.66;7394249;19;20026;-64
2023/03/24 00:39:49;;;;;;;8.77;3.08;;;;;;;9.73;81.30;100025.09;7392786;19;19998;-64
2023/03/24 00:42:15;;;;;;;9.30;3.10;;;;;;;9.77;81.18;100013.22;7392924;19;20009;-65
2023/03/24 00:44:43;;;;;;;7.55;2.83;;;;;;;9.73;81.10;100007.34;7395030;19;20376;-64
2023/03/24 00:47:10;;;;;;;10.10;3.20;;;;;;;9.75;81.47;100004.56;7395683;19;20010;-64
2023/03/24 00:49:41;;;;;;;8.32;3.05;;;;;;;9.80;80.90;99994.38;7393291;19;20024;-64
2023/03/24 00:52:19;;;;;;;7.70;2.80;;;;;;;9.76;81.09;99990.34;7393929;19;20007;-64
2023/03/24 00:54:46;;;;;;;9.70;2.90;;;;;;;9.73;81.46;99983.47;7392299;19;20534;-65
2023/03/24 00:57:20;;;;;;;6.45;2.85;;;;;;;9.67;81.62;99978.72;7395125;19;20005;-65
2023/03/24 00:59:48;;;;;;;8.10;3.42;;;;;;;9.66;81.75;99983.19;7393783;19;20014;-65
2023/03/24 01:02:17;;;;;;;10.40;3.00;;;;;;;9.63;81.82;99972.84;7395976;19;20015;-65
2023/03/24 01:04:46;;;;;;;8.05;2.80;;;;;;;9.61;81.94;99958.91;7394098;19;20118;-64
2023/03/24 01:07:16;;;;;;;8.75;3.05;;;;;;;9.63;81.70;99967.56;7393027;19;20023;-64
2023/03/24 01:09:50;;;;;;;10.65;3.40;;;;;;;9.68;81.63;99964.50;7393458;19;20010;-64
2023/03/24 01:12:17;;;;;;;8.90;3.53;;;;;;;9.67;81.82;99968.13;7394361;19;20002;-64
2023/03/24 01:14:43;;;;;;;8.52;3.00;;;;;;;9.67;81.80;99957.50;7392121;19;20002;-64
2023/03/24 01:17:09;;;;;;;10.52;3.20;;;;;;;9.67;82.12;99949.53;7394005;19;20026;-64
2023/03/24 01:19:35;;;;;;;8.73;3.10;;;;;;;9.65;81.99;99940.91;7394128;19;20006;-64
2023/03/24 01:22:01;;;;;;;9.27;2.97;;;;;;;9.61;82.67;99939.53;7394366;19;20061;-64
2023/03/24 01:24:27;;;;;;;8.50;3.40;;;;;;;9.57;82.34;99938.13;7393691;19;20022;-64
2023/03/24 01:26:52;;;;;;;10.30;3.25;;;;;;;9.57;82.51;99936.31;7393403;19;20082;-65
2023/03/24 01:29:18;;;;;;;9.63;3.38;;;;;;;9.57;82.57;99930.16;7392076;19;20003;-64
2023/03/24 01:31:43;;;;;;;6.97;2.90;;;;;;;9.60;82.54;99922.78;7392097;19;20074;-65
2023/03/24 01:34:09;;;;;;;9.73;3.03;;;;;;;9.65;82.75;99925.84;7394807;19;19990;-65
2023/03/24 01:36:35;;;;;;;9.30;3.70;;;;;;;9.59;83.00;99918.44;7391431;19;20486;-65
2023/03/24 01:39:01;;;;;;;10.02;3.70;;;;;;;9.64;82.84;99915.38;7392030;19;20003;-65
2023/03/24 01:41:35;;;;;;;8.40;2.95;;;;;;;9.64;83.22;99910.91;7387764;19;19999;-65
2023/03/24 01:44:01;;;;;;;7.78;2.85;;;;;;;9.60;83.08;99906.88;7392468;19;20034;-65
2023/03/24 01:46:28;;;;;;;7.35;3.13;;;;;;;9.55;83.54;99903.78;7392494;19;20485;-65
2023/03/24 01:49:01;;;;;;;8.13;3.30;;;;;;;9.56;83.80;99888.69;7389420;19;20439;-65
2023/03/24 01:51:38;;;;;;;8.35;3.13;;;;;;;9.61;83.43;99894.44;7391489;19;19994;-66
2023/03/24 01:54:04;;;;;;;10.98;3.63;;;;;;;9.62;83.46;99881.03;7393237;19;19998;-65
2023/03/24 01:56:33;;;;;;;8.27;3.08;;;;;;;9.61;83.75;99879.34;7392677;19;20424;-65
2023/03/24 01:59:08;;;;;;;9.05;3.47;;;;;;;9.64;83.79;99879.09;7393838;19;19995;-65
2023/03/24 02:01:34;;;;;;;9.40;3.88;;;;;;;9.63;83.80;99871.25;7390730;19;19997;-65
2023/03/24 02:04:03;;;;;;;9.95;3.50;;;;;;;9.56;84.19;99857.75;7392265;19;20032;-65
2023/03/24 02:06:31;;;;;;;8.13;3.40;;;;;;;9.63;84.07;99855.34;7392133;19;20004;-65
2023/03/24 02:09:00;;;;;;;8.10;3.40;;;;;;;9.66;84.04;99852.41;7391340;19;19998;-64
2023/03/24 02:11:29;;;;;;;8.13;3.38;;;;;;;9.63;84.27;99852.69;7391116;19;20023;-64
2023/03/24 02:13:55;;;;;;;8.20;3.30;;;;;;;9.67;83.96;99844.28;7390585;19;20006;-65
2023/03/24 02:16:28;;;;;;;7.35;3.38;;;;;;;9.62;84.72;99848.38;7392284;19;20009;-64
2023/03/24 02:19:13;;;;;;;10.70;4.18;;;;;;;9.64;84.68;99843.78;7390676;19;20009;-65
2023/03/24 02:22:23;;;;;;;6.60;3.28;;;;;;;9.62;85.30;99837.75;7393024;19;20002;-66
2023/03/24 02:24:58;;;;;;;10.15;3.78;;;;;;;9.61;84.93;99822.84;7390217;19;20002;-63
2023/03/24 02:27:42;;;;;;;9.98;3.75;;;;;;;9.63;84.77;99823.50;7392236;19;20003;-65
2023/03/24 02:30:39;;;;;;;6.78;3.47;;;;;;;9.73;84.33;99819.03;7389378;19;20003;-65
2023/03/24 02:33:53;;;;;;;8.10;3.53;;;;;;;9.71;85.34;99811.22;7392037;19;20071;-64
2023/03/24 02:36:54;;;;;;;8.30;3.70;;;;;;;9.69;85.19;99799.91;7389140;19;20015;-64
2023/03/24 02:39:37;;;;;;;9.75;4.28;;;;;;;9.74;84.79;99794.19;7389950;19;20003;-64
2023/03/24 02:42:25;;;;;;;9.82;3.95;;;;;;;9.68;85.65;99781.50;7388075;19;20439;-65
2023/03/24 02:45:16;;;;;;;9.10;3.70;;;;;;;9.70;85.68;99776.88;7390710;19;20481;-65
2023/03/24 02:47:56;;;;;;;10.00;4.00;;;;;;;9.71;85.33;99774.09;7391167;19;20005;-65
2023/03/24 02:50:51;;;;;;;7.07;3.65;;;;;;;9.80;85.06;99771.56;7390854;19;20074;-65
2023/03/24 02:56:12;;;;;;;8.43;3.95;;;;;;;9.79;85.46;99759.25;7380582;19;20019;-69
2023/03/24 02:59:05;;;;;;;8.70;3.92;;;;;;;9.83;85.26;99757.97;7394998;19;20003;-69
2023/03/24 03:01:42;;;;;;;7.15;3.70;;;;;;;9.83;85.08;99750.03;7391381;19;19998;-69
2023/03/24 03:04:13;;;;;;;7.18;4.05;;;;;;;9.88;84.70;99746.00;7390846;19;20006;-69
2023/03/24 03:06:42;;;;;;;8.02;3.72;;;;;;;9.87;85.03;99741.69;7391344;19;19999;-68
2023/03/24 03:09:15;;;;;;;7.68;3.83;;;;;;;9.86;85.07;99726.72;7389536;19;20009;-68
2023/03/24 03:11:46;;;;;;;9.35;3.83;;;;;;;9.91;84.94;99728.97;7391133;19;19999;-69
2023/03/24 03:14:18;;;;;;;7.13;3.58;;;;;;;9.98;84.79;99724.75;7389663;19;20013;-68
2023/03/24 03:16:52;;;;;;;8.77;4.40;;;;;;;9.95;84.95;99725.88;7388786;19;20014;-68
2023/03/24 03:19:23;;;;;;;8.63;3.95;;;;;;;10.00;84.69;99706.84;7389857;19;20503;-68
2023/03/24 03:21:49;;;;;;;9.13;4.47;;;;;;;9.95;84.87;99712.59;7389717;19;20002;-68
2023/03/24 03:24:38;;;;;;;8.00;4.00;;;;;;;10.03;85.14;99718.97;7390555;19;20332;-68
2023/03/24 03:27:13;;;;;;;8.38;4.30;;;;;;;10.00;84.79;99706.84;7394438;19;20006;-68
2023/03/24 03:29:44;;;;;;;8.85;4.40;;;;;;;10.03;85.00;99705.72;7387978;19;20003;-68
2023/03/24 03:32:16;;;;;;;7.25;3.85;;;;;;;10.04;85.16;99702.91;7390889;19;19999;-68
2023/03/24 03:34:55;;;;;;;7.25;4.00;;;;;;;10.03;85.80;99689.78;7388828;19;20013;-68
2023/03/24 03:37:36;;;;;;;7.60;4.00;;;;;;;10.04;85.60;99689.63;7390259;19;20002;-67
2023/03/24 03:40:26;;;;;;;6.45;3.83;;;;;;;10.03;86.31;99689.78;7390379;19;19991;-67
2023/03/24 03:42:52;;;;;;;7.05;3.83;;;;;;;10.01;85.91;99679.31;7391013;19;20003;-67
2023/03/24 03:45:18;;;;;;;9.05;4.13;;;;;;;10.01;86.23;99679.31;7387596;19;20035;-68
2023/03/24 03:47:44;;;;;;;8.45;4.10;;;;;;;10.03;86.34;99679.19;7389854;19;20003;-68
2023/03/24 03:50:10;;;;;;;7.25;4.47;;;;;;;10.09;85.79;99674.09;7390167;19;20079;-68
2023/03/24 03:52:38;;;;;;;8.60;4.03;;;;;;;10.08;86.02;99675.09;7390274;19;20006;-67
2023/03/24 03:55:05;;;;;;;6.72;4.28;;;;;;;10.10;86.09;99672.28;7389309;19;20069;-68
2023/03/24 03:57:33;;;;;;;8.18;4.38;;;;;;;10.09;86.10;99666.13;7397402;19;20006;-68
2023/03/24 04:00:13;;;;;;;6.60;4.07;;;;;;;10.07;86.11;99667.28;7397303;19;20007;-68
2023/03/24 04:02:59;;;;;;;7.97;4.55;;;;;;;10.07;86.50;99667.28;7396807;19;20010;-68
2023/03/24 04:05:32;;;;;;;8.52;4.35;;;;;;;10.12;86.14;99667.66;7390118;19;20006;-68
2023/03/24 04:08:15;;;;;;;6.47;4.28;;;;;;;10.09;86.44;99666.13;7394560;19;20058;-68
2023/03/24 04:10:47;;;;;;;6.60;4.10;;;;;;;10.10;86.24;99662.50;7395784;19;20016;-68
2023/03/24 04:13:28;;;;;;;8.77;4.63;;;;;;;10.07;86.45;99665.47;7396531;19;20034;-68
2023/03/24 04:16:10;;;;;;;7.20;4.10;;;;;;;10.12;86.40;99659.69;7395410;19;20019;-68
2023/03/24 04:19:16;;;;;;;8.35;4.55;;;;;;;10.14;86.53;99655.09;7396662;19;20030;-68
2023/03/24 04:21:57;;;;;;;7.35;4.32;;;;;;;10.11;86.36;99664.19;7394685;19;20003;-68
2023/03/24 04:24:39;;;;;;;8.52;4.50;;;;;;;10.20;86.18;99657.13;7394702;19;20350;-68
2023/03/24 04:27:20;;;;;;;9.82;4.65;;;;;;;10.15;86.21;99651.44;7396617;19;20076;-68
2023/03/24 04:30:05;;;;;;;9.55;4.82;;;;;;;10.21;86.31;99653.50;7394310;19;20007;-68
2023/03/24 04:32:45;;;;;;;6.95;3.67;;;;;;;10.18;86.50;99645.84;7396220;19;20018;-68
2023/03/24 04:35:33;;;;;;;8.35;4.22;;;;;;;10.19;86.18;99635.06;7394239;19;20115;-69
2023/03/24 04:38:03;;;;;;;8.25;4.07;;;;;;;10.17;86.44;99642.34;7395453;19;20002;-68
2023/03/24 04:40:35;;;;;;;8.77;4.40;;;;;;;10.21;86.45;99642.88;7396893;19;20006;-68
2023/03/24 04:43:07;;;;;;;7.55;4.18;;;;;;;10.18;86.52;99644.00;7397930;19;20080;-68
2023/03/24 04:45:35;;;;;;;8.05;4.25;;;;;;;10.24;86.12;99641.72;7392603;19;20110;-68
2023/03/24 04:48:04;;;;;;;7.15;4.35;;;;;;;10.27;86.22;99641.44;7394631;19;20002;-69
2023/03/24 04:50:35;;;;;;;6.75;3.88;;;;;;;10.30;85.80;99639.31;7391117;19;20371;-68
2023/03/24 04:53:02;;;;;;;6.93;4.20;;;;;;;10.27;86.05;99630.81;7396325;19;20005;-68
2023/03/24 04:55:49;;;;;;;7.53;4.10;;;;;;;10.26;86.54;99637.94;7391784;19;20039;-68
2023/03/24 04:58:16;;;;;;;8.15;4.00;;;;;;;10.26;86.50;99629.16;7396056;19;20002;-68
2023/03/24 05:00:43;;;;;;;7.60;4.07;;;;;;;10.30;86.43;99631.34;7392265;19;19995;-68
2023/03/24 05:03:15;;;;;;;8.77;3.80;;;;;;;10.33;86.36;99627.56;7395374;19;20043;-67
2023/03/24 05:05:41;;;;;;;9.88;4.60;;;;;;;10.32;86.13;99629.38;7390984;19;20019;-68
2023/03/24 05:08:07;;;;;;;6.55;4.38;;;;;;;10.32;86.55;99623.22;7393697;19;20002;-69
2023/03/24 05:10:36;;;;;;;8.63;4.45;;;;;;;10.28;86.95;99628.00;7394428;19;20020;-68
2023/03/24 05:13:03;;;;;;;8.05;4.82;;;;;;;10.28;86.95;99627.16;7395606;19;20019;-69
2023/03/24 05:15:29;;;;;;;6.47;4.43;;;;;;;10.29;87.59;99623.56;7391531;19;20031;-69
2023/03/24 05:17:55;;;;;;;7.97;5.07;;;;;;;10.28;87.29;99632.47;7394520;19;20003;-68
2023/03/24 05:20:21;;;;;;;7.78;4.75;;;;;;;10.25;87.79;99630.13;7394076;19;20027;-69
2023/03/24 05:22:48;;;;;;;8.50;4.97;;;;;;;10.21;88.13;99632.28;7395070;19;20003;-70
2023/03/24 05:25:15;;;;;;;7.57;4.80;;;;;;;10.27;87.89;99630.81;7389221;19;20404;-69
2023/03/24 05:27:41;;;;;;;7.32;4.28;;;;;;;10.24;87.80;99642.56;7393211;19;20001;-68
2023/03/24 05:30:07;;;;;;;7.57;4.40;;;;;;;10.26;87.72;99637.94;7394980;19;19991;-69
2023/03/24 05:32:32;;;;;;;8.05;4.40;;;;;;;10.28;87.63;99643.09;7394495;19;20002;-69
2023/03/24 05:34:58;;;;;;;7.50;4.50;;;;;;;10.25;87.83;99638.94;7392652;19;20338;-69
2023/03/24 05:37:23;;;;;;;6.90;4.60;;;;;;;10.23;87.77;99638.25;7393756;19;20009;-68
2023/03/24 05:39:49;;;;;;;7.10;4.18;;;;;;;10.28;87.59;99632.47;7394136;19;19990;-68
2023/03/24 05:42:15;;;;;;;7.18;4.00;;;;;;;10.26;87.75;99642.44;7394151;19;20006;-69
2023/03/24 05:44:41;;;;;;;7.07;3.78;;;;;;;10.32;87.48;99641.81;7388808;19;20003;-70
2023/03/24 05:47:07;;;;;;;6.65;3.80;;;;;;;10.33;87.34;99635.53;7393602;19;20312;-69
2023/03/24 05:49:33;;;;;;;7.13;4.22;;;;;;;10.36;87.39;99637.84;7391257;19;19990;-69
2023/03/24 05:51:59;;;;;;;6.45;3.90;;;;;;;10.33;87.27;99635.53;7392594;19;20016;-68
2023/03/24 05:54:25;;;;;;;5.43;3.58;;;;;;;10.34;87.25;99638.03;7391838;19;20035;-69
2023/03/24 05:56:50;;;;;;;6.85;4.07;;;;;;;10.37;86.95;99647.50;7392796;19;20002;-70
2023/03/24 05:59:16;;;;;;;5.03;3.67;;;;;;;10.36;86.94;99651.13;7393005;19;20022;-68
2023/03/24 06:01:42;;;;;;;6.25;3.90;;;;;;;10.37;87.02;99658.13;7393428;19;19998;-66
2023/03/24 06:04:08;;;;;;;5.22;3.38;;;;;;;10.36;86.58;99689.16;7392425;19;20356;-68
2023/03/24 06:06:33;;;;;;;6.38;3.30;;;;;;;10.39;86.42;99704.75;7393381;19;20074;-68
2023/03/24 06:09:01;;;;;;;6.07;3.08;;;;;;;10.39;85.58;99735.78;7391908;19;20027;-68
2023/03/24 06:11:27;;;;;;;3.30;1.92;;;;;;;10.33;84.07;99726.63;7392939;19;20058;-68
2023/03/24 06:13:58;;;;;;;2.50;1.20;;;;;;;10.19;82.41;99724.47;7392346;19;20038;-69
2023/03/24 06:16:27;;;;;;;3.00;1.17;;;;;;;10.12;82.88;99729.53;7391260;19;20492;-68
2023/03/24 06:18:53;;;;;;;3.53;1.02;;;;;;;10.15;81.95;99734.53;7390765;19;20003;-68
2023/03/24 06:21:19;;;;;;;4.07;1.10;;;;;;;10.16;81.06;99733.56;7392452;19;20452;-69
2023/03/24 06:23:45;;;;;;;4.93;1.20;;;;;;;10.25;79.12;99746.91;7391089;19;19995;-67
2023/03/24 06:26:13;;;;;;;6.40;1.30;;;;;;;10.23;78.64;99755.03;7392023;19;20016;-68
2023/03/24 06:28:40;;;;;;;4.72;0.98;;;;;;;10.25;78.14;99757.53;7391094;19;20003;-67
2023/03/24 06:31:18;;;;;;;3.92;1.00;;;;;;;10.27;77.88;99772.34;7392606;19;20027;-68
2023/03/24 06:33:45;;;;;;;4.95;1.25;;;;;;;10.22;77.31;99771.97;7391966;19;20013;-68
2023/03/24 06:36:11;;;;;;;3.88;1.20;;;;;;;10.12;78.12;99774.66;7391556;19;20003;-68
2023/03/24 06:38:37;;;;;;;5.70;1.40;;;;;;;10.00;78.86;99775.00;7391572;19;20003;-67
2023/03/24 06:41:04;;;;;;;5.72;1.40;;;;;;;9.97;78.24;99793.84;7391579;19;20058;-68
2023/03/24 06:43:30;;;;;;;5.60;1.35;;;;;;;9.96;77.61;99793.03;7392216;19;20054;-68
2023/03/24 06:45:56;;;;;;;7.57;1.50;;;;;;;9.99;77.95;99807.81;7391371;19;20003;-68
2023/03/24 06:48:22;;;;;;;4.25;1.20;;;;;;;10.01;77.58;99803.19;7390977;19;20003;-67
2023/03/24 06:50:47;;;;;;;5.95;1.33;;;;;;;9.95;77.19;99813.41;7390827;19;20070;-68
2023/03/24 06:53:13;;;;;;;4.43;1.40;;;;;;;9.97;77.12;99829.19;7391401;19;20099;-69
2023/03/24 06:55:39;;;;;;;4.35;1.25;;;;;;;9.97;76.81;99829.19;7388545;19;20017;-68
2023/03/24 06:58:05;;;;;;;6.07;1.65;;;;;;;10.01;76.54;99835.88;7391380;19;20019;-67
2023/03/24 07:00:30;;;;;;;6.32;1.35;;;;;;;10.07;75.84;99832.66;7390557;19;20221;-69
2023/03/24 07:02:56;;;;;;;6.35;1.40;;;;;;;10.01;76.23;99832.38;7391661;19;20020;-68
2023/03/24 07:05:22;;;;;;;4.50;1.35;;;;;;;10.01;76.15;99845.66;7388368;19;20002;-67
2023/03/24 07:07:48;;;;;;;7.47;1.73;;;;;;;9.85;76.43;99847.09;7389831;19;19998;-68
2023/03/24 07:10:14;;;;;;;5.72;1.67;;;;;;;9.87;75.96;99860.22;7390685;19;20006;-66
2023/03/24 07:12:40;;;;;;;6.63;1.70;;;;;;;10.00;75.83;99859.91;7390298;19;20006;-68
2023/03/24 07:15:07;;;;;;;4.50;1.50;;;;;;;9.99;75.86;99863.53;7389629;19;20006;-68
2023/03/24 07:17:33;;;;;;;8.18;1.83;;;;;;;10.14;75.31;99868.25;7390608;19;20028;-67
2023/03/24 07:19:58;;;;;;;6.88;1.52;;;;;;;10.37;74.17;99887.28;7389640;19;19999;-68
2023/03/24 07:22:24;;;;;;;9.55;1.95;;;;;;;10.31;74.17;99887.88;7390521;19;20015;-67
2023/03/24 07:24:50;;;;;;;8.07;1.83;;;;;;;10.26;73.44;99889.31;7388260;19;20014;-67
2023/03/24 07:27:15;;;;;;;7.53;1.80;;;;;;;10.03;73.47;99888.81;7390258;19;20362;-68
2023/03/24 07:29:41;;;;;;;6.80;1.52;;;;;;;9.97;72.76;99895.50;7394191;19;19995;-67
2023/03/24 07:32:06;;;;;;;7.43;1.50;;;;;;;9.92;73.07;99882.69;7399512;19;20001;-68
2023/03/24 07:34:33;;;;;;;7.65;1.80;;;;;;;10.10;72.96;99892.56;7398965;19;20026;-68
2023/03/24 07:37:05;;;;;;;8.25;1.80;;;;;;;10.07;72.89;99893.69;7397918;19;20306;-68
2023/03/24 07:39:31;;;;;;;6.72;1.80;;;;;;;10.18;72.71;99914.75;7397260;19;20037;-69
2023/03/24 07:41:57;;;;;;;8.60;2.22;;;;;;;10.11;72.76;99905.69;7397835;19;19995;-68
2023/03/24 07:44:22;;;;;;;6.63;1.73;;;;;;;10.21;72.35;99903.00;7395953;19;20003;-69
2023/03/24 07:46:48;;;;;;;7.00;1.52;;;;;;;10.42;71.65;99905.44;7397062;19;19995;-68
2023/03/24 07:49:14;;;;;;;8.35;1.80;;;;;;;10.43;71.99;99910.59;7394799;19;20010;-69
2023/03/24 07:51:39;;;;;;;10.43;1.92;;;;;;;10.47;72.02;99913.78;7397371;19;20023;-68
2023/03/24 07:54:05;;;;;;;9.45;2.20;;;;;;;10.46;71.99;99921.91;7396634;19;20344;-68
2023/03/24 07:56:31;;;;;;;10.15;2.42;;;;;;;10.41;71.97;99925.84;7393555;19;20011;-68
2023/03/24 07:58:56;;;;;;;7.72;1.92;;;;;;;10.46;71.51;99927.22;7398149;19;20062;-68
2023/03/24 08:01:22;;;;;;;9.63;1.90;;;;;;;10.53;70.79;99942.44;7397185;19;20002;-68
2023/03/24 08:03:47;;;;;;;10.05;2.25;;;;;;;10.53;70.77;99939.78;7395805;19;20019;-68
2023/03/24 08:06:13;;;;;;;8.10;1.83;;;;;;;10.52;70.44;99939.94;7395906;19;20023;-68
2023/03/24 08:08:39;;;;;;;8.00;2.10;;;;;;;10.60;70.05;99942.69;7396158;19;19995;-68
2023/03/24 08:11:04;;;;;;;10.30;2.05;;;;;;;10.46;69.59;99953.78;7397128;19;20468;-68
2023/03/24 08:13:30;;;;;;;11.27;2.10;;;;;;;10.60;69.68;99951.50;7397084;19;20062;-68
2023/03/24 08:15:56;;;;;;;8.77;2.10;;;;;;;10.62;68.87;99962.78;7393986;19;20010;-68
2023/03/24 08:18:23;;;;;;;9.50;1.67;;;;;;;10.67;68.81;99965.03;7396353;19;20014;-68
2023/03/24 08:20:53;;;;;;;7.30;1.85;;;;;;;10.64;67.46;99966.16;7395730;19;20013;-67
2023/03/24 08:23:19;;;;;;;9.35;2.03;;;;;;;10.68;68.40;99972.84;7395865;19;20074;-67
2023/03/24 08:25:46;;;;;;;12.27;2.33;;;;;;;10.82;68.26;99971.53;7392267;19;20480;-67
2023/03/24 08:28:12;;;;;;;9.55;2.05;;;;;;;10.71;68.01;99971.72;7395722;19;20007;-68
2023/03/24 08:30:38;;;;;;;8.40;1.83;;;;;;;10.77;68.07;99968.47;7393536;19;20006;-68
2023/03/24 08:33:04;;;;;;;12.95;2.17;;;;;;;10.85;67.78;99979.19;7396223;19;20010;-68
2023/03/24 08:35:37;;;;;;;8.73;1.92;;;;;;;10.95;67.74;99983.66;7390311;19;20003;-68
2023/03/24 08:38:03;;;;;;;7.95;1.95;;;;;;;10.83;68.25;99981.19;7395727;19;20013;-66
2023/03/24 08:40:30;;;;;;;9.00;2.10;;;;;;;10.85;68.66;99981.84;7392695;19;20016;-66
2023/03/24 08:43:01;;;;;;;10.20;2.33;;;;;;;10.86;67.79;99972.09;7395775;19;20006;-66
2023/03/24 08:45:30;;;;;;;10.95;1.88;;;;;;;10.91;67.97;99988.41;7392497;19;20022;-66
2023/03/24 08:47:57;;;;;;;10.35;2.25;;;;;;;11.03;67.14;99987.22;7392440;19;20573;-66
2023/03/24 08:50:27;;;;;;;8.43;1.90;;;;;;;11.07;67.22;99991.28;7394261;19;20081;-67
2023/03/24 08:52:54;;;;;;;8.68;2.10;;;;;;;11.19;66.97;99994.56;7395024;19;20017;-66
2023/03/24 08:55:23;;;;;;;9.80;2.03;;;;;;;11.12;67.19;100007.59;7390766;19;20090;-66
2023/03/24 08:57:49;;;;;;;9.43;2.10;;;;;;;11.17;66.63;100013.34;7392735;19;20471;-67
2023/03/24 09:00:17;;;;;;;10.23;2.20;;;;;;;11.18;66.70;100016.81;7395086;19;19991;-66
2023/03/24 09:02:53;;;;;;;9.95;2.00;;;;;;;10.97;65.99;100022.38;7393147;19;20347;-67
2023/03/24 09:05:20;;;;;;;8.30;1.70;;;;;;;10.71;67.13;100024.03;7392667;19;20009;-65
2023/03/24 09:07:47;;;;;;;10.75;2.33;;;;;;;10.63;66.65;100016.75;7394244;19;19995;-67
2023/03/24 09:10:14;;;;;;;11.73;2.00;;;;;;;10.68;66.42;100027.81;7395230;19;20459;-67
2023/03/24 09:12:40;;;;;;;7.80;2.10;;;;;;;11.01;65.33;100029.09;7394174;19;19998;-66
2023/03/24 09:15:07;;;;;;;11.75;1.95;;;;;;;11.01;65.02;100021.13;7391888;19;20496;-66
2023/03/24 09:17:33;;;;;;;8.60;1.73;;;;;;;11.02;64.84;100033.41;7392609;19;20006;-66
2023/03/24 09:19:58;;;;;;;7.43;2.10;;;;;;;10.99;63.38;100039.00;7395188;19;20026;-65
2023/03/24 09:22:24;;;;;;;9.80;1.80;;;;;;;11.15;62.66;100017.94;7394444;19;19998;-66
2023/03/24 09:24:50;;;;;;;7.70;1.90;;;;;;;11.34;61.99;100019.69;7392058;19;20384;-66
2023/03/24 09:27:16;;;;;;;11.50;2.13;;;;;;;11.44;62.37;100018.81;7393892;19;20002;-66
2023/03/24 09:29:42;;;;;;;10.80;2.22;;;;;;;11.64;61.94;100018.53;7392132;19;20003;-67
2023/03/24 09:32:08;;;;;;;11.07;1.98;;;;;;;11.77;60.95;100015.47;7394412;19;20108;-66
2023/03/24 09:34:35;;;;;;;10.15;2.20;;;;;;;11.90;60.58;100023.09;7392118;19;20431;-65
2023/03/24 09:37:00;;;;;;;9.55;2.00;;;;;;;12.04;60.58;100029.69;7394008;19;20006;-66
2023/03/24 09:39:26;;;;;;;8.95;2.00;;;;;;;11.98;59.69;100017.84;7393335;19;20332;-66
2023/03/24 09:41:54;;;;;;;9.38;1.92;;;;;;;12.13;59.75;100020.81;7393601;19;19998;-67
2023/03/24 09:44:38;;;;;;;8.85;1.95;;;;;;;12.22;59.82;100022.53;7391230;19;20546;-66
2023/03/24 09:47:20;;;;;;;9.13;2.50;;;;;;;12.28;58.60;100035.22;7394465;19;20006;-66
2023/03/24 09:49:47;;;;;;;12.27;2.42;;;;;;;12.11;59.41;100033.41;7391456;19;20004;-66
2023/03/24 09:52:17;;;;;;;8.73;2.15;;;;;;;12.18;60.04;100029.16;7389705;19;20022;-66
2023/03/24 09:54:45;;;;;;;9.60;2.20;;;;;;;12.04;60.04;100027.03;7390790;19;20040;-66
2023/03/24 09:57:28;;;;;;;10.43;2.20;;;;;;;12.09;59.58;100030.09;7394317;19;20002;-66
2023/03/24 09:59:54;;;;;;;10.25;2.03;;;;;;;12.04;60.10;100019.03;7392851;19;19994;-66
2023/03/24 10:02:22;;;;;;;8.93;1.88;;;;;;;12.02;60.09;100024.53;7392456;19;20003;-66
2023/03/24 10:04:48;;;;;;;19.42;2.45;;;;;;;11.97;60.18;100044.63;7390434;19;20448;-66
2023/03/24 10:07:24;;;;;;;10.48;2.05;;;;;;;11.98;59.74;100040.97;7391965;19;20515;-66
2023/03/24 10:09:56;;;;;;;11.23;2.33;;;;;;;12.03;59.31;100042.16;7391958;19;20327;-67
2023/03/24 10:12:35;;;;;;;9.85;2.22;;;;;;;12.12;59.18;100040.44;7391573;19;19999;-70
2023/03/24 10:15:10;;;;;;;13.95;2.63;;;;;;;12.21;58.77;100052.00;7389904;19;20010;-70
2023/03/24 10:17:44;;;;;;;10.50;2.50;;;;;;;11.93;59.64;100051.22;7392666;19;20006;-65
2023/03/24 10:20:31;;;;;;;12.32;2.88;;;;;;;11.96;59.12;100065.06;7392426;19;20066;-68
2023/03/24 10:23:29;;;;;;;13.57;2.70;;;;;;;11.57;60.49;100061.84;7392277;19;20002;-65
2023/03/24 10:26:01;;;;;;;9.60;2.20;;;;;;;11.31;60.83;100078.50;7391286;19;20091;-66
2023/03/24 10:28:33;;;;;;;12.55;2.47;;;;;;;11.08;59.74;100067.38;7392380;19;20007;-66
2023/03/24 10:31:04;;;;;;;14.27;2.55;;;;;;;11.21;60.06;100069.72;7392543;19;20054;-67
2023/03/24 10:33:30;;;;;;;11.98;2.40;;;;;;;11.23;59.86;100077.53;7392514;19;20010;-67
2023/03/24 10:36:08;;;;;;;11.98;2.28;;;;;;;11.33;59.49;100073.88;7391004;19;19999;-66
2023/03/24 10:38:34;;;;;;;13.55;2.50;;;;;;;11.32;59.32;100079.34;7392860;19;20011;-65
2023/03/24 10:41:01;;;;;;;13.10;2.58;;;;;;;11.43;58.46;100067.66;7391918;19;20027;-70
2023/03/24 10:43:27;;;;;;;12.43;2.55;;;;;;;11.58;58.89;100082.13;7391317;19;20079;-68
2023/03/24 10:45:55;;;;;;;12.48;2.17;;;;;;;11.46;59.52;100076.19;7391722;19;20003;-67
2023/03/24 10:48:34;;;;;;;13.48;2.95;;;;;;;11.33;58.99;100091.66;7390711;19;20014;-71
2023/03/24 10:51:00;;;;;;;11.88;2.80;;;;;;;11.27;59.79;100074.44;7391408;19;20009;-66
2023/03/24 10:53:26;;;;;;;15.95;3.15;;;;;;;11.46;58.44;100075.34;7391383;19;20029;-69
2023/03/24 10:55:52;;;;;;;10.13;2.45;;;;;;;11.78;57.05;100080.22;7390299;19;20066;-70
2023/03/24 10:58:38;;;;;;;12.30;3.13;;;;;;;12.01;54.36;100088.59;7391077;19;20015;-69
2023/03/24 11:01:24;;;;;;;10.85;2.22;;;;;;;12.27;54.64;100084.19;7392022;19;19998;-70
2023/03/24 11:03:51;;;;;;;13.98;2.50;;;;;;;12.48;55.12;100078.50;7388658;19;19995;-71
2023/03/24 11:06:19;;;;;;;12.15;2.60;;;;;;;12.55;54.06;100082.25;7388955;19;19991;-71
2023/03/24 11:08:45;;;;;;;11.13;2.25;;;;;;;12.38;54.26;100089.25;7390465;19;19999;-66
2023/03/24 11:11:19;;;;;;;16.05;3.15;;;;;;;12.13;54.31;100101.50;7390502;19;20471;-68
2023/03/24 11:13:55;;;;;;;14.20;3.03;;;;;;;12.03;54.66;100099.91;7390393;19;20030;-71
2023/03/24 11:16:36;;;;;;;12.75;3.20;;;;;;;11.76;55.79;100093.66;7390778;19;20022;-71
2023/03/24 11:19:05;;;;;;;13.40;2.80;;;;;;;12.00;56.21;100095.72;7389463;19;20006;-70
2023/03/24 11:21:34;;;;;;;13.82;2.70;;;;;;;11.74;56.68;100097.47;7389204;19;19998;-72
2023/03/24 11:24:11;;;;;;;13.73;2.60;;;;;;;11.62;57.42;100100.34;7389930;19;20009;-71
2023/03/24 11:26:39;;;;;;;12.48;2.70;;;;;;;11.64;56.85;100102.84;7390181;19;19998;-75
2023/03/24 11:29:18;;;;;;;15.45;2.85;;;;;;;11.77;56.92;100108.63;7388672;19;20036;-72
2023/03/24 11:31:52;;;;;;;13.27;2.75;;;;;;;11.93;56.08;100105.31;7391088;19;19995;-67
2023/03/24 11:34:24;;;;;;;12.73;2.58;;;;;;;12.11;55.55;100114.13;7389421;19;20018;-68
2023/03/24 11:37:02;;;;;;;11.00;2.80;;;;;;;12.15;55.36;100099.53;7390536;19;19999;-69
2023/03/24 11:39:33;;;;;;;12.52;2.28;;;;;;;12.24;54.93;100113.78;7390811;19;20006;-69
2023/03/24 11:42:15;;;;;;;11.38;2.50;;;;;;;12.39;53.26;100114.91;7388088;19;20081;-67
2023/03/24 11:44:48;;;;;;;8.40;1.90;;;;;;;12.10;50.64;100107.13;7387160;19;20026;-68
2023/03/24 11:47:36;;;;;;;9.90;1.90;;;;;;;12.05;48.03;100116.59;7388415;19;20471;-71
2023/03/24 11:50:07;;;;;;;8.57;2.20;;;;;;;12.33;48.63;100122.66;7389063;19;19999;-70